sensor_id;sensor_type;location;lat;lon;timestamp;temperature;humidity
44069;DHT22;29738;51.234;5.484;2023-04-24T16:14:01;12.80;99.90
44069;DHT22;29738;51.234;5.484;2023-04-24T16:16:27;12.80;99.90
44069;DHT22;29738;51.234;5.484;2023-04-24T16:18:52;12.80;99.90
44069;DHT22;29738;51.234;5.484;2023-04-24T16:21:19;12.90;99.90
44069;DHT22;29738;51.234;5.484;2023-04-24T16:23:44;12.90;99.90
44069;DHT22;29738;51.234;5.484;2023-04-24T16:26:12;12.90;99.90
44069;DHT22;29738;51.234;5.484;2023-04-24T16:28:38;12.50;99.90
44069;DHT22;29738;51.234;5.484;2023-04-24T16:31:04;12.40;99.90
44069;DHT22;29738;51.234;5.484;2023-04-24T16:33:29;12.50;99.90
44069;DHT22;29738;51.234;5.484;2023-04-24T16:35:56;12.40;99.90
44069;DHT22;29738;51.234;5.484;2023-04-24T16:38:21;12.30;99.90
44069;DHT22;29738;51.234;5.484;2023-04-24T16:40:49;11.80;99.90
44069;DHT22;29738;51.234;5.484;2023-04-24T16:43:15;11.80;99.90
44069;DHT22;29738;51.234;5.484;2023-04-24T16:45:40;11.90;99.90
44069;DHT22;29738;51.234;5.484;2023-04-24T16:48:06;11.90;99.90
44069;DHT22;29738;51.234;5.484;2023-04-24T16:50:32;11.90;99.90
44069;DHT22;29738;51.234;5.484;2023-04-24T16:52:57;11.80;99.90
44069;DHT22;29738;51.234;5.484;2023-04-24T16:55:23;11.90;99.90
44069;DHT22;29738;51.234;5.484;2023-04-24T16:57:49;11.70;99.90
44069;DHT22;29738;51.234;5.484;2023-04-24T17:00:15;11.50;99.90
44069;DHT22;29738;51.234;5.484;2023-04-24T17:02:41;11.50;99.90
44069;DHT22;29738;51.234;5.484;2023-04-24T17:05:06;11.40;99.90
44069;DHT22;29738;51.234;5.484;2023-04-24T17:07:32;11.50;99.90
44069;DHT22;29738;51.234;5.484;2023-04-24T17:09:58;11.40;99.90
44069;DHT22;29738;51.234;5.484;2023-04-24T17:12:23;11.30;99.90
44069;DHT22;29738;51.234;5.484;2023-04-24T17:14:49;11.40;99.90
44069;DHT22;29738;51.234;5.484;2023-04-24T17:17:15;11.40;99.90
44069;DHT22;29738;51.234;5.484;2023-04-24T17:19:40;11.50;99.90
44069;DHT22;29738;51.234;5.484;2023-04-24T17:22:06;11.50;99.90
44069;DHT22;29738;51.234;5.484;2023-04-24T17:24:31;11.70;99.90
44069;DHT22;29738;51.234;5.484;2023-04-24T17:26:57;11.90;99.90
44069;DHT22;29738;51.234;5.484;2023-04-24T17:29:24;12.20;99.90
44069;DHT22;29738;51.234;5.484;2023-04-24T17:31:50;12.00;99.90
44069;DHT22;29738;51.234;5.484;2023-04-24T17:34:16;11.70;99.90
44069;DHT22;29738;51.234;5.484;2023-04-24T17:36:41;11.50;99.90
44069;DHT22;29738;51.234;5.484;2023-04-24T17:39:07;11.40;99.90
44069;DHT22;29738;51.234;5.484;2023-04-24T17:41:34;11.40;99.90
44069;DHT22;29738;51.234;5.484;2023-04-24T17:44:00;11.50;99.90
44069;DHT22;29738;51.234;5.484;2023-04-24T17:46:25;11.80;99.90
44069;DHT22;29738;51.234;5.484;2023-04-24T17:48:51;12.00;99.90
44069;DHT22;29738;51.234;5.484;2023-04-24T17:51:16;12.10;99.90
44069;DHT22;29738;51.234;5.484;2023-04-24T17:53:42;11.80;99.90
44069;DHT22;29738;51.234;5.484;2023-04-24T17:56:08;11.50;99.90
44069;DHT22;29738;51.234;5.484;2023-04-24T17:58:34;11.30;99.90
44069;DHT22;29738;51.234;5.484;2023-04-24T18:01:00;11.30;99.90
44069;DHT22;29738;51.234;5.484;2023-04-24T18:03:25;11.30;99.90
44069;DHT22;29738;51.234;5.484;2023-04-24T18:05:51;11.10;99.90
44069;DHT22;29738;51.234;5.484;2023-04-24T18:08:16;11.10;99.90
44069;DHT22;29738;51.234;5.484;2023-04-24T18:10:42;11.10;99.90
44069;DHT22;29738;51.234;5.484;2023-04-24T18:13:08;11.10;99.90
44069;DHT22;29738;51.234;5.484;2023-04-24T18:15:34;10.90;99.90
44069;DHT22;29738;51.234;5.484;2023-04-24T18:17:59;10.90;99.90
44069;DHT22;29738;51.234;5.484;2023-04-24T18:20:25;10.80;99.90
44069;DHT22;29738;51.234;5.484;2023-04-24T18:22:51;10.80;99.90
44069;DHT22;29738;51.234;5.484;2023-04-24T18:25:16;10.70;99.90
44069;DHT22;29738;51.234;5.484;2023-04-24T18:27:45;10.70;99.90
44069;DHT22;29738;51.234;5.484;2023-04-24T18:30:11;10.60;99.90
44069;DHT22;29738;51.234;5.484;2023-04-24T18:32:36;10.70;99.90
44069;DHT22;29738;51.234;5.484;2023-04-24T18:35:02;10.50;99.90
44069;DHT22;29738;51.234;5.484;2023-04-24T18:37:28;10.40;99.90
44069;DHT22;29738;51.234;5.484;2023-04-24T18:39:53;10.50;99.90
44069;DHT22;29738;51.234;5.484;2023-04-24T18:42:20;10.20;99.90
44069;DHT22;29738;51.234;5.484;2023-04-24T18:44:47;10.10;99.90
44069;DHT22;29738;51.234;5.484;2023-04-24T18:47:13;10.10;99.90
44069;DHT22;29738;51.234;5.484;2023-04-24T18:49:39;10.20;99.90
44069;DHT22;29738;51.234;5.484;2023-04-24T18:52:05;10.10;99.90
44069;DHT22;29738;51.234;5.484;2023-04-24T18:54:30;10.20;99.90
44069;DHT22;29738;51.234;5.484;2023-04-24T18:56:56;10.30;99.90
44069;DHT22;29738;51.234;5.484;2023-04-24T18:59:23;10.30;99.90
44069;DHT22;29738;51.234;5.484;2023-04-24T19:01:49;9.90;99.90
44069;DHT22;29738;51.234;5.484;2023-04-24T19:04:14;9.90;99.90
44069;DHT22;29738;51.234;5.484;2023-04-24T19:06:40;9.50;99.90
44069;DHT22;29738;51.234;5.484;2023-04-24T19:09:06;9.70;99.90
44069;DHT22;29738;51.234;5.484;2023-04-24T19:11:32;9.60;99.90
44069;DHT22;29738;51.234;5.484;2023-04-24T19:13:57;9.60;99.90
44069;DHT22;29738;51.234;5.484;2023-04-24T19:16:27;9.60;99.90
44069;DHT22;29738;51.234;5.484;2023-04-24T19:18:55;9.50;99.90
44069;DHT22;29738;51.234;5.484;2023-04-24T19:21:21;9.50;99.90
44069;DHT22;29738;51.234;5.484;2023-04-24T19:23:47;9.40;99.90
44069;DHT22;29738;51.234;5.484;2023-04-24T19:26:14;9.30;99.90
44069;DHT22;29738;51.234;5.484;2023-04-24T19:28:40;9.40;99.90
44069;DHT22;29738;51.234;5.484;2023-04-24T19:31:06;9.30;99.90
